createdAt,value
2018-03-16T00:01:18.382Z,21.17
2018-03-16T00:03:46.638Z,23.40
2018-03-16T00:06:14.157Z,20.92
2018-03-16T00:08:41.661Z,20.58
2018-03-16T00:11:09.261Z,20.55
2018-03-16T00:13:36.832Z,21.60
2018-03-16T00:16:04.356Z,22.98
2018-03-16T00:18:32.613Z,22.75
2018-03-16T00:21:00.205Z,20.67
2018-03-16T00:23:28.545Z,20.75
2018-03-16T00:25:56.055Z,21.33
2018-03-16T00:28:23.747Z,20.73
2018-03-16T00:30:51.272Z,21.85
2018-03-16T00:33:18.866Z,22.17
2018-03-16T00:35:46.362Z,20.77
2018-03-16T00:38:14.070Z,22.67
2018-03-16T00:40:41.558Z,21.65
2018-03-16T00:43:09.149Z,22.62
2018-03-16T00:45:37.057Z,21.92
2018-03-16T00:48:05.375Z,21.92
2018-03-16T00:50:32.935Z,23.42
2018-03-16T00:53:00.418Z,23.23
2018-03-16T00:55:28.709Z,21.48
2018-03-16T00:57:56.967Z,20.37
2018-03-16T01:00:25.221Z,21.85
2018-03-16T01:02:52.723Z,19.27
2018-03-16T01:05:20.347Z,22.62
2018-03-16T01:07:48.646Z,20.73
2018-03-16T01:10:16.921Z,20.23
2018-03-16T01:12:45.171Z,22.00
2018-03-16T01:15:12.657Z,21.90
2018-03-16T01:17:40.922Z,21.62
2018-03-16T01:20:08.468Z,23.70
2018-03-16T01:22:36.228Z,21.15
2018-03-16T01:25:03.792Z,22.17
2018-03-16T01:27:31.281Z,21.73
2018-03-16T01:29:58.843Z,21.00
2018-03-16T01:32:27.205Z,23.02
2018-03-16T01:34:54.734Z,21.45
2018-03-16T01:37:22.218Z,19.60
2018-03-16T01:39:49.726Z,23.15
2018-03-16T01:42:17.228Z,23.17
2018-03-16T01:44:45.564Z,23.15
2018-03-16T01:47:13.093Z,23.00
2018-03-16T01:49:41.343Z,22.70
2018-03-16T01:52:08.958Z,23.02
2018-03-16T01:54:36.456Z,20.90
2018-03-16T01:57:03.979Z,21.52
2018-03-16T01:59:31.573Z,19.95
2018-03-16T02:01:59.084Z,22.08
2018-03-16T02:04:26.583Z,20.60
2018-03-16T02:06:54.080Z,20.12
2018-03-16T02:09:22.341Z,19.55
2018-03-16T02:11:50.590Z,21.17
2018-03-16T02:14:18.863Z,21.50
2018-03-16T02:16:46.366Z,19.85
2018-03-16T02:19:14.626Z,17.12
2018-03-16T02:21:42.901Z,19.62
2018-03-16T02:24:10.415Z,20.73
2018-03-16T02:26:37.918Z,16.35
2018-03-16T02:29:05.548Z,17.37
2018-03-16T02:31:33.059Z,17.00
2018-03-16T02:34:01.314Z,17.83
2018-03-16T02:36:28.806Z,16.62
2018-03-16T02:38:56.307Z,16.35
2018-03-16T02:41:23.902Z,15.60
2018-03-16T02:43:52.190Z,15.00
2018-03-16T02:46:20.503Z,16.08
2018-03-16T02:48:48.013Z,15.48
2018-03-16T02:51:15.558Z,14.52
2018-03-16T02:53:43.067Z,14.02
2018-03-16T02:56:10.554Z,13.95
2018-03-16T02:58:38.111Z,13.95
2018-03-16T03:01:05.621Z,13.70
2018-03-16T03:03:33.886Z,13.95
2018-03-16T03:06:02.250Z,14.00
2018-03-16T03:08:30.579Z,12.52
2018-03-16T03:10:58.088Z,12.23
2018-03-16T03:13:25.576Z,13.95
2018-03-16T03:15:53.816Z,13.55
2018-03-16T03:18:21.461Z,13.75
2018-03-16T03:20:49.060Z,13.00
2018-03-16T03:23:16.791Z,13.43
2018-03-16T03:25:44.287Z,14.70
2018-03-16T03:28:12.677Z,13.88
2018-03-16T03:30:40.922Z,15.43
2018-03-16T03:33:08.406Z,13.55
2018-03-16T03:35:36.661Z,13.65
2018-03-16T03:38:04.252Z,14.00
2018-03-16T03:40:31.741Z,13.70
2018-03-16T03:42:59.370Z,15.13
2018-03-16T03:45:26.862Z,13.77
2018-03-16T03:47:54.342Z,14.93
2018-03-16T03:50:21.838Z,13.43
2018-03-16T03:52:50.122Z,11.93
2018-03-16T03:55:18.368Z,11.90
2018-03-16T03:57:45.853Z,13.70
2018-03-16T04:00:15.042Z,13.18
2018-03-16T04:02:42.748Z,13.75
2018-03-16T04:05:10.245Z,12.50
2018-03-16T04:07:37.730Z,11.98
2018-03-16T04:10:06.041Z,13.80
2018-03-16T04:12:33.550Z,13.00
2018-03-16T04:15:01.863Z,12.88
2018-03-16T04:17:29.394Z,13.07
2018-03-16T04:19:56.894Z,14.15
2018-03-16T04:22:24.374Z,15.60
2018-03-16T04:24:51.858Z,12.13
2018-03-16T04:27:19.370Z,13.82
2018-03-16T04:29:46.867Z,12.70
2018-03-16T04:32:14.355Z,13.62
2018-03-16T04:34:42.622Z,12.75
2018-03-16T04:37:10.405Z,13.00
2018-03-16T04:39:37.967Z,11.25
2018-03-16T04:42:05.462Z,13.73
2018-03-16T04:44:33.259Z,12.15
2018-03-16T04:47:00.737Z,14.00
2018-03-16T04:49:29.000Z,13.18
2018-03-16T04:51:57.351Z,15.20
2018-03-16T04:54:24.835Z,15.55
2018-03-16T04:56:52.354Z,15.35
2018-03-16T04:59:19.854Z,14.30
2018-03-16T05:01:47.402Z,17.75
2018-03-16T05:04:14.918Z,17.23
2018-03-16T05:06:42.394Z,17.50
2018-03-16T05:09:09.878Z,17.73
2018-03-16T05:11:37.564Z,18.00
2018-03-16T05:14:05.053Z,20.00
2018-03-16T05:16:32.535Z,18.30
2018-03-16T05:19:00.047Z,19.15
2018-03-16T05:21:28.298Z,19.08
2018-03-16T05:23:56.582Z,18.20
2018-03-16T05:26:24.090Z,20.65
2018-03-16T05:28:51.579Z,21.83
2018-03-16T05:31:19.071Z,21.62
2018-03-16T05:33:46.562Z,21.50
2018-03-16T05:36:14.062Z,22.13
2018-03-16T05:38:41.553Z,22.00
2018-03-16T05:41:10.874Z,20.95
2018-03-16T05:43:38.403Z,20.50
2018-03-16T05:46:05.969Z,22.10
2018-03-16T05:48:34.222Z,21.73
2018-03-16T05:51:01.706Z,21.37
2018-03-16T05:53:29.975Z,19.15
2018-03-16T05:55:58.235Z,21.33
2018-03-16T05:58:25.713Z,21.40
2018-03-16T06:00:54.000Z,21.50
2018-03-16T06:03:21.494Z,22.35
2018-03-16T06:05:48.993Z,21.62
2018-03-16T06:08:16.678Z,19.77
2018-03-16T06:10:44.180Z,20.12
2018-03-16T06:13:11.670Z,21.40
2018-03-16T06:15:39.318Z,21.60
2018-03-16T06:18:06.942Z,21.17
2018-03-16T06:20:34.683Z,20.92
2018-03-16T06:23:03.030Z,22.33
2018-03-16T06:25:31.377Z,20.05
2018-03-16T06:27:58.928Z,20.73
2018-03-16T06:30:26.447Z,19.85
2018-03-16T06:32:54.034Z,20.20
2018-03-16T06:35:21.539Z,21.25
2018-03-16T06:37:49.138Z,20.77
2018-03-16T06:40:16.946Z,21.40
2018-03-16T06:42:44.598Z,22.35
2018-03-16T06:45:13.579Z,20.10
2018-03-16T06:47:41.079Z,19.83
2018-03-16T06:50:09.374Z,21.80
2018-03-16T06:52:36.916Z,21.23
2018-03-16T06:55:05.986Z,22.65
2018-03-16T06:57:33.491Z,24.15
2018-03-16T07:00:00.995Z,24.75
2018-03-16T07:02:28.485Z,26.42
2018-03-16T07:04:55.966Z,27.42
2018-03-16T07:07:24.337Z,27.17
2018-03-16T07:09:52.618Z,25.70
2018-03-16T07:12:20.151Z,27.15
2018-03-16T07:14:47.813Z,26.70
2018-03-16T07:17:16.190Z,24.15
2018-03-16T07:19:43.838Z,25.88
2018-03-16T07:22:11.385Z,32.38
2018-03-16T07:24:38.892Z,28.80
2018-03-16T07:27:06.514Z,27.58
2018-03-16T07:29:34.051Z,27.23
2018-03-16T07:32:01.546Z,24.90
2018-03-16T07:34:29.046Z,26.30
2018-03-16T07:36:56.614Z,26.45
2018-03-16T07:39:24.111Z,25.33
2018-03-16T07:41:51.722Z,28.62
2018-03-16T07:44:19.235Z,26.75
2018-03-16T07:46:46.768Z,24.87
2018-03-16T07:49:14.446Z,25.98
2018-03-16T07:51:41.983Z,28.00
2018-03-16T07:54:09.686Z,28.77
2018-03-16T07:56:37.190Z,26.67
2018-03-16T07:59:05.468Z,25.98
2018-03-16T08:01:33.713Z,25.62
2018-03-16T08:04:01.230Z,26.27
2018-03-16T08:06:28.714Z,26.73
2018-03-16T08:08:56.784Z,25.55
2018-03-16T08:11:24.290Z,24.30
2018-03-16T08:13:52.541Z,23.92
2018-03-16T08:16:20.022Z,23.48
2018-03-16T08:18:48.290Z,23.60
2018-03-16T08:21:16.601Z,22.05
2018-03-16T08:23:45.644Z,22.20
2018-03-16T08:26:13.149Z,20.95
2018-03-16T08:28:40.634Z,21.55
2018-03-16T08:31:08.125Z,16.67
2018-03-16T08:33:35.619Z,18.98
2018-03-16T08:36:03.162Z,17.40
2018-03-16T08:38:30.675Z,15.90
2018-03-16T08:40:58.282Z,15.23
2018-03-16T08:43:25.817Z,13.10
2018-03-16T08:45:53.306Z,14.02
2018-03-16T08:48:21.594Z,12.90
2018-03-16T08:50:49.094Z,12.05
2018-03-16T08:53:16.598Z,13.23
2018-03-16T08:55:44.908Z,12.40
2018-03-16T08:58:12.422Z,12.15
2018-03-16T09:00:40.702Z,11.00
2018-03-16T09:03:08.248Z,10.23
2018-03-16T09:05:35.736Z,12.70
2018-03-16T09:08:03.266Z,11.05
2018-03-16T09:10:31.534Z,11.95
2018-03-16T09:12:59.032Z,11.45
2018-03-16T09:15:26.621Z,10.30
2018-03-16T09:17:54.298Z,9.70
2018-03-16T09:20:21.898Z,10.20
2018-03-16T09:22:50.191Z,10.80
2018-03-16T09:25:17.720Z,9.07
2018-03-16T09:27:45.207Z,11.05
2018-03-16T09:30:12.714Z,10.05
2018-03-16T09:32:40.206Z,9.80
2018-03-16T09:35:08.475Z,11.05
2018-03-16T09:37:36.033Z,10.27
2018-03-16T09:40:03.601Z,10.25
2018-03-16T09:42:31.871Z,10.05
2018-03-16T09:44:59.358Z,11.20
2018-03-16T09:47:26.854Z,9.02
2018-03-16T09:49:54.371Z,7.80
2018-03-16T09:52:21.863Z,7.72
2018-03-16T09:55:01.345Z,7.90
2018-03-16T09:57:28.913Z,8.25
2018-03-16T09:59:57.182Z,7.40
2018-03-16T10:02:24.690Z,9.15
2018-03-16T10:04:52.173Z,8.00
2018-03-16T10:07:19.695Z,7.90
2018-03-16T10:09:47.198Z,8.93
2018-03-16T10:12:14.694Z,9.23
2018-03-16T10:14:42.967Z,8.63
2018-03-16T10:17:11.244Z,8.32
2018-03-16T10:19:39.505Z,8.80
2018-03-16T10:22:06.990Z,9.60
2018-03-16T10:24:34.494Z,8.70
2018-03-16T10:27:01.990Z,9.55
2018-03-16T10:29:30.267Z,9.15
2018-03-16T10:31:58.536Z,10.25
2018-03-16T10:34:26.784Z,8.85
2018-03-16T10:36:54.345Z,7.35
2018-03-16T10:39:21.837Z,8.57
2018-03-16T10:41:50.089Z,8.65
2018-03-16T10:44:17.611Z,8.55
2018-03-16T10:46:45.098Z,9.98
2018-03-16T10:49:12.589Z,8.35
2018-03-16T10:51:40.991Z,7.60
2018-03-16T10:54:08.491Z,7.60
2018-03-16T10:56:36.095Z,6.83
2018-03-16T10:59:03.648Z,6.33
2018-03-16T11:01:37.526Z,6.80
2018-03-16T11:04:10.774Z,7.90
2018-03-16T11:06:38.262Z,6.90
2018-03-16T11:09:05.752Z,6.63
2018-03-16T11:11:33.261Z,5.90
2018-03-16T11:14:00.758Z,6.27
2018-03-16T11:16:28.253Z,8.07
2018-03-16T11:18:56.514Z,7.50
2018-03-16T11:21:24.974Z,7.47
2018-03-16T11:23:52.518Z,6.30
2018-03-16T11:26:20.014Z,7.27
2018-03-16T11:28:48.350Z,7.73
2018-03-16T11:31:15.961Z,6.10
2018-03-16T11:33:44.209Z,7.40
2018-03-16T11:36:11.694Z,6.20
2018-03-16T11:38:40.083Z,7.40
2018-03-16T11:41:08.342Z,5.50
2018-03-16T11:43:35.932Z,6.60
2018-03-16T11:46:03.430Z,6.07
2018-03-16T11:48:30.917Z,5.23
2018-03-16T11:50:58.410Z,5.40
2018-03-16T11:53:25.963Z,6.23
2018-03-16T11:55:53.498Z,6.00
2018-03-16T11:58:21.023Z,5.80
2018-03-16T12:00:48.522Z,7.23
2018-03-16T12:03:16.791Z,6.30
2018-03-16T12:05:44.266Z,6.57
2018-03-16T12:08:12.509Z,6.70
2018-03-16T12:10:40.043Z,6.63
2018-03-16T12:13:07.545Z,6.00
2018-03-16T12:15:35.794Z,6.10
2018-03-16T12:18:03.334Z,6.40
2018-03-16T12:20:30.822Z,6.93
2018-03-16T12:22:58.426Z,7.93
2018-03-16T12:25:26.688Z,6.97
2018-03-16T12:27:54.935Z,7.50
2018-03-16T12:30:22.622Z,7.17
2018-03-16T12:32:50.869Z,6.10
2018-03-16T12:35:18.359Z,7.00
2018-03-16T12:37:46.625Z,5.77
2018-03-16T12:40:14.115Z,6.80
2018-03-16T12:42:41.594Z,6.00
2018-03-16T12:45:09.268Z,6.00
2018-03-16T12:47:36.778Z,5.20
2018-03-16T12:50:04.326Z,6.60
2018-03-16T12:52:31.942Z,4.83
2018-03-16T12:54:59.590Z,4.30
2018-03-16T12:57:27.147Z,3.50
2018-03-16T12:59:54.675Z,3.80
2018-03-16T13:02:22.921Z,4.33
2018-03-16T13:04:50.409Z,5.40
2018-03-16T13:07:18.677Z,5.00
2018-03-16T13:09:46.924Z,3.97
2018-03-16T13:12:14.414Z,3.80
2018-03-16T13:14:41.899Z,4.10
2018-03-16T13:17:09.397Z,3.90
2018-03-16T13:19:36.902Z,4.50
2018-03-16T13:22:04.378Z,4.20
2018-03-16T13:24:31.863Z,4.30
2018-03-16T13:26:59.366Z,3.13
2018-03-16T13:29:27.611Z,3.60
2018-03-16T13:31:55.134Z,3.87
2018-03-16T13:34:22.614Z,4.40
2018-03-16T13:36:50.099Z,4.10
2018-03-16T13:39:18.395Z,4.87
2018-03-16T13:41:46.640Z,4.43
2018-03-16T13:44:14.118Z,5.00
2018-03-16T13:46:42.383Z,3.37
2018-03-16T13:49:09.872Z,4.30
2018-03-16T13:51:37.398Z,3.67
2018-03-16T13:54:04.972Z,4.00
2018-03-16T13:56:32.417Z,3.80
2018-03-16T13:59:00.716Z,4.23
2018-03-16T14:01:28.218Z,4.00
2018-03-16T14:03:55.694Z,4.10
2018-03-16T14:06:23.210Z,4.50
2018-03-16T14:08:51.547Z,3.87
2018-03-16T14:11:19.811Z,5.50
2018-03-16T14:13:47.323Z,4.57
2018-03-16T14:16:14.816Z,4.60
2018-03-16T14:18:42.301Z,5.20
2018-03-16T14:21:10.575Z,4.70
2018-03-16T14:23:38.837Z,5.20
2018-03-16T14:26:06.322Z,5.13
2018-03-16T14:28:34.577Z,5.53
2018-03-16T14:31:02.221Z,4.90
2018-03-16T14:33:29.698Z,4.60
2018-03-16T14:35:57.222Z,5.83
2018-03-16T14:38:24.707Z,5.80
2018-03-16T14:40:52.186Z,6.00
2018-03-16T14:43:20.450Z,5.60
2018-03-16T14:45:48.726Z,5.60
2018-03-16T14:48:16.985Z,5.10
2018-03-16T14:50:44.482Z,4.70
2018-03-16T14:53:12.733Z,4.83
2018-03-16T14:55:40.222Z,4.63
2018-03-16T14:58:07.714Z,4.10
2018-03-16T15:00:35.210Z,4.03
2018-03-16T15:03:03.494Z,3.73
2018-03-16T15:05:31.771Z,3.73
2018-03-16T15:08:00.058Z,4.20
2018-03-16T15:10:28.322Z,3.70
2018-03-16T15:12:56.612Z,5.10
2018-03-16T15:15:24.100Z,3.03
2018-03-16T15:17:51.594Z,2.87
2018-03-16T15:22:53.806Z,2.53
2018-03-16T15:25:22.078Z,2.70
2018-03-16T15:27:50.410Z,3.17
2018-03-16T15:30:18.733Z,3.53
2018-03-16T15:32:47.006Z,2.77
2018-03-16T15:35:15.283Z,3.17
2018-03-16T15:37:43.579Z,3.73
2018-03-16T15:40:11.094Z,3.20
2018-03-16T15:42:38.628Z,3.07
2018-03-16T15:45:07.677Z,3.67
2018-03-16T15:47:35.951Z,3.27
2018-03-16T15:50:04.403Z,3.00
2018-03-16T15:52:37.331Z,3.60
2018-03-16T15:55:06.452Z,2.57
2018-03-16T15:57:36.247Z,3.27
2018-03-16T16:00:04.966Z,2.60
2018-03-16T16:02:33.445Z,7.70
2018-03-16T16:05:02.267Z,9.20
2018-03-16T16:07:29.846Z,8.80
2018-03-16T16:09:58.228Z,8.40
2018-03-16T16:12:26.306Z,10.73
2018-03-16T16:14:54.682Z,11.47
2018-03-16T16:17:22.197Z,10.80
2018-03-16T16:19:49.725Z,9.57
2018-03-16T16:22:17.212Z,12.00
2018-03-16T16:24:44.740Z,12.90
2018-03-16T16:27:12.296Z,10.93
2018-03-16T16:29:39.898Z,10.93
2018-03-16T16:32:07.470Z,12.53
2018-03-16T16:34:35.005Z,12.13
2018-03-16T16:37:02.576Z,12.43
2018-03-16T16:39:30.157Z,13.10
2018-03-16T16:41:57.696Z,12.50
2018-03-16T16:44:25.254Z,11.50
2018-03-16T16:46:52.815Z,11.10
2018-03-16T16:49:20.320Z,11.80
2018-03-16T16:51:47.827Z,12.90
2018-03-16T16:54:15.375Z,12.20
2018-03-16T16:56:43.565Z,12.37
2018-03-16T16:59:11.116Z,11.83
2018-03-16T17:01:38.627Z,13.27
2018-03-16T17:04:06.155Z,13.20
2018-03-16T17:06:33.685Z,13.73
2018-03-16T17:09:01.210Z,13.83
2018-03-16T17:11:28.744Z,14.03
2018-03-16T17:13:57.043Z,13.70
2018-03-16T17:16:24.598Z,15.60
2018-03-16T17:18:52.208Z,13.17
2018-03-16T17:21:19.755Z,14.77
2018-03-16T17:23:47.265Z,14.57
2018-03-16T17:26:15.607Z,16.62
2018-03-16T17:28:43.123Z,16.43
2018-03-16T17:31:10.620Z,17.63
2018-03-16T17:33:38.226Z,19.77
2018-03-16T17:36:06.492Z,22.10
2018-03-16T17:38:34.783Z,24.37
2018-03-16T17:41:02.398Z,24.60
2018-03-16T17:43:29.914Z,25.42
2018-03-16T17:45:57.500Z,24.00
2018-03-16T17:48:25.002Z,23.95
2018-03-16T17:50:54.256Z,25.30
2018-03-16T17:53:21.835Z,24.45
2018-03-16T17:55:49.473Z,24.85
2018-03-16T17:58:17.239Z,26.27
2018-03-16T18:00:44.856Z,29.08
2018-03-16T18:03:13.282Z,28.60
2018-03-16T18:05:40.871Z,28.70
2018-03-16T18:08:08.439Z,28.90
2018-03-16T18:10:36.146Z,27.17
2018-03-16T18:13:03.732Z,27.87
2018-03-16T18:15:31.319Z,30.00
2018-03-16T18:17:59.689Z,32.22
2018-03-16T18:20:27.234Z,31.67
2018-03-16T18:22:54.828Z,30.52
2018-03-16T18:25:23.117Z,30.65
2018-03-16T18:27:51.473Z,30.77
2018-03-16T18:30:19.036Z,30.27
2018-03-16T18:32:46.530Z,32.15
2018-03-16T18:35:14.071Z,30.92
2018-03-16T18:37:42.350Z,32.97
2018-03-16T18:40:10.659Z,30.92
2018-03-16T18:42:38.222Z,35.08
2018-03-16T18:45:05.814Z,35.83
2018-03-16T18:47:33.375Z,35.63
2018-03-16T18:50:00.938Z,40.97
2018-03-16T18:52:29.295Z,40.00
2018-03-16T18:54:56.862Z,39.47
2018-03-16T18:57:24.435Z,42.90
2018-03-16T18:59:51.978Z,44.30
2018-03-16T19:02:19.537Z,45.28
2018-03-16T19:04:47.137Z,41.83
2018-03-16T19:07:14.728Z,41.90
2018-03-16T19:09:42.995Z,37.30
2018-03-16T19:12:10.563Z,36.60
2018-03-16T19:14:38.096Z,34.95
2018-03-16T19:17:05.699Z,32.65
2018-03-16T19:19:33.308Z,34.17
2018-03-16T19:22:00.829Z,35.42
2018-03-16T19:24:28.452Z,34.90
2018-03-16T19:26:56.741Z,35.08
2018-03-16T19:29:24.274Z,36.95
2018-03-16T19:31:51.854Z,35.58
2018-03-16T19:34:19.382Z,31.42
2018-03-16T19:36:46.909Z,35.95
2018-03-16T19:39:14.479Z,31.85
2018-03-16T19:41:42.014Z,36.88
2018-03-16T19:44:09.538Z,38.80
2018-03-16T19:46:37.113Z,36.30
2018-03-16T19:49:04.701Z,38.05
2018-03-16T19:51:32.258Z,40.50
2018-03-16T19:53:59.811Z,38.78
2018-03-16T19:56:27.346Z,37.92
2018-03-16T19:58:54.882Z,37.13
2018-03-16T20:01:23.213Z,34.30
2018-03-16T20:03:50.811Z,38.83
2018-03-16T20:06:18.310Z,39.00
2018-03-16T20:08:45.861Z,38.03
2018-03-16T20:11:14.286Z,38.60
2018-03-16T20:13:41.778Z,38.58
2018-03-16T20:16:10.109Z,37.22
2018-03-16T20:18:37.615Z,37.10
2018-03-16T20:21:05.905Z,38.40
2018-03-16T20:23:34.232Z,35.53
2018-03-16T20:26:01.739Z,36.47
2018-03-16T20:28:30.015Z,37.92
2018-03-16T20:30:58.397Z,36.30
2018-03-16T20:33:26.671Z,38.15
2018-03-16T20:35:54.996Z,32.67
2018-03-16T20:38:22.590Z,35.55
2018-03-16T20:40:50.083Z,34.42
2018-03-16T20:43:17.579Z,33.55
2018-03-16T20:45:45.086Z,31.73
2018-03-16T20:48:13.355Z,33.80
2018-03-16T20:50:41.602Z,33.78
2018-03-16T20:53:09.227Z,33.53
2018-03-16T20:55:36.726Z,34.80
2018-03-16T20:58:04.230Z,32.38
2018-03-16T21:00:31.839Z,30.20
2018-03-16T21:02:59.346Z,32.10
2018-03-16T21:05:26.879Z,30.15
2018-03-16T21:07:54.552Z,31.12
2018-03-16T21:10:22.856Z,28.92
2018-03-16T21:12:50.342Z,32.10
2018-03-16T21:15:17.885Z,30.83
2018-03-16T21:17:45.418Z,30.27
2018-03-16T21:20:12.903Z,33.03
2018-03-16T21:22:40.550Z,28.98
2018-03-16T21:25:08.970Z,32.70
2018-03-16T21:27:36.490Z,32.92
2018-03-16T21:30:04.002Z,33.22
2018-03-16T21:32:31.490Z,32.22
2018-03-16T21:34:59.742Z,30.90
2018-03-16T21:37:27.249Z,34.40
2018-03-16T21:39:54.793Z,33.65
2018-03-16T21:42:22.275Z,33.00
2018-03-16T21:44:49.863Z,32.85
2018-03-16T21:47:17.362Z,31.10
2018-03-16T21:49:44.886Z,33.65
2018-03-16T21:52:12.446Z,29.80
2018-03-16T21:54:40.056Z,31.90
2018-03-16T21:57:07.574Z,32.17
2018-03-16T21:59:35.207Z,32.08
2018-03-16T22:02:02.777Z,32.67
2018-03-16T22:04:31.074Z,31.55
2018-03-16T22:06:58.589Z,32.13
2018-03-16T22:09:26.188Z,30.75
2018-03-16T22:11:54.541Z,33.10
2018-03-16T22:14:22.046Z,33.95
2018-03-16T22:16:50.302Z,35.50
2018-03-16T22:19:17.820Z,38.78
2018-03-16T22:21:45.379Z,39.58
2018-03-16T22:24:12.874Z,39.97
2018-03-16T22:26:40.355Z,41.92
2018-03-16T22:29:08.739Z,41.17
2018-03-16T22:31:36.438Z,45.33
2018-03-16T22:34:03.947Z,39.17
2018-03-16T22:36:32.307Z,42.00
2018-03-16T22:38:59.863Z,39.97
2018-03-16T22:41:27.379Z,38.28
2018-03-16T22:43:54.986Z,37.88
2018-03-16T22:46:22.481Z,39.50
2018-03-16T22:48:50.178Z,38.72
2018-03-16T22:51:17.731Z,42.62
2018-03-16T22:53:45.392Z,42.13
2018-03-16T22:56:13.020Z,39.08
2018-03-16T22:58:41.458Z,34.63
2018-03-16T23:01:09.015Z,34.83
2018-03-16T23:03:38.038Z,40.78
2018-03-16T23:06:07.020Z,42.78
2018-03-16T23:08:35.154Z,44.50
2018-03-16T23:11:07.105Z,45.92
2018-03-16T23:13:34.600Z,46.78
2018-03-16T23:16:02.330Z,45.00
2018-03-16T23:18:29.979Z,46.83
2018-03-16T23:21:00.525Z,42.50
2018-03-16T23:23:32.614Z,49.83
2018-03-16T23:26:01.480Z,43.50
2018-03-16T23:28:29.372Z,41.90
2018-03-16T23:31:02.314Z,39.22
2018-03-16T23:33:29.862Z,39.08
2018-03-16T23:35:58.167Z,42.15
2018-03-16T23:38:25.678Z,40.38
2018-03-16T23:40:54.170Z,43.10
2018-03-16T23:43:22.995Z,43.42
2018-03-16T23:45:50.667Z,42.08
2018-03-16T23:48:18.223Z,43.17
2018-03-16T23:50:46.124Z,43.08
2018-03-16T23:53:14.012Z,40.17
2018-03-16T23:55:42.298Z,46.45
2018-03-16T23:58:10.567Z,43.33
